createdAt,value
2019-02-11T00:00:34.529Z,97.90
2019-02-11T00:03:05.454Z,98.10
2019-02-11T00:05:35.910Z,98.10
2019-02-11T00:08:06.238Z,98.00
2019-02-11T00:10:36.589Z,98.10
2019-02-11T00:13:10.716Z,97.90
2019-02-11T00:15:40.010Z,97.60
2019-02-11T00:18:10.335Z,96.90
2019-02-11T00:20:40.694Z,97.30
2019-02-11T00:23:11.050Z,96.60
2019-02-11T00:25:41.550Z,96.70
2019-02-11T00:28:11.902Z,96.20
2019-02-11T00:30:42.243Z,96.40
2019-02-11T00:33:12.595Z,96.40
2019-02-11T00:35:43.874Z,96.00
2019-02-11T00:38:14.419Z,95.60
2019-02-11T00:40:44.755Z,95.80
2019-02-11T00:43:19.104Z,95.80
2019-02-11T00:45:47.150Z,96.00
2019-02-11T00:48:19.832Z,95.80
2019-02-11T00:50:49.834Z,95.90
2019-02-11T00:53:20.366Z,95.60
2019-02-11T00:55:50.702Z,96.00
2019-02-11T00:58:21.105Z,95.80
2019-02-11T01:00:51.446Z,96.20
2019-02-11T01:03:21.946Z,96.10
2019-02-11T01:05:55.163Z,95.90
2019-02-11T01:08:25.738Z,96.10
2019-02-11T01:10:56.086Z,96.20
2019-02-11T01:13:28.017Z,96.10
2019-02-11T01:15:58.612Z,96.20
2019-02-11T01:18:29.017Z,96.30
2019-02-11T01:20:59.654Z,96.40
2019-02-11T01:23:30.223Z,96.60
2019-02-11T01:26:00.645Z,96.40
2019-02-11T01:28:33.393Z,96.70
2019-02-11T01:31:03.734Z,96.60
2019-02-11T01:33:36.074Z,96.70
2019-02-11T01:36:06.087Z,97.00
2019-02-11T01:38:36.470Z,97.20
2019-02-11T01:41:06.820Z,97.40
2019-02-11T01:43:37.198Z,97.70
2019-02-11T01:46:07.538Z,97.80
2019-02-11T01:48:37.868Z,98.00
2019-02-11T01:51:08.225Z,98.10
2019-02-11T01:53:38.614Z,98.40
2019-02-11T01:56:08.983Z,98.30
2019-02-11T01:58:39.322Z,98.40
2019-02-11T02:01:09.706Z,98.50
2019-02-11T02:03:40.034Z,98.50
2019-02-11T02:06:10.430Z,98.60
2019-02-11T02:08:40.762Z,98.60
2019-02-11T02:11:11.123Z,98.70
2019-02-11T02:13:44.957Z,98.70
2019-02-11T02:16:13.470Z,98.80
2019-02-11T02:18:43.803Z,98.90
2019-02-11T02:21:14.958Z,99.00
2019-02-11T02:23:47.006Z,98.90
2019-02-11T02:26:18.655Z,98.90
2019-02-11T02:28:48.994Z,99.10
2019-02-11T02:31:21.254Z,99.00
2019-02-11T02:33:51.574Z,98.90
2019-02-11T02:36:22.267Z,98.80
2019-02-11T02:38:52.599Z,99.00
2019-02-11T02:41:22.982Z,99.10
2019-02-11T02:43:55.506Z,98.90
2019-02-11T02:46:25.318Z,99.00
2019-02-11T02:48:57.525Z,99.00
2019-02-11T02:51:28.229Z,98.80
2019-02-11T02:53:58.699Z,98.90
2019-02-11T02:56:29.449Z,99.10
2019-02-11T02:58:59.786Z,99.10
2019-02-11T03:01:30.166Z,99.10
2019-02-11T03:04:02.035Z,99.70
2019-02-11T03:06:32.493Z,99.60
2019-02-11T03:09:03.022Z,99.70
2019-02-11T03:11:34.988Z,99.70
2019-02-11T03:14:06.274Z,99.80
2019-02-11T03:16:36.995Z,99.80
2019-02-11T03:19:07.333Z,99.80
2019-02-11T03:21:37.692Z,99.90
2019-02-11T03:24:08.080Z,99.90
2019-02-11T03:26:39.494Z,99.90
2019-02-11T03:29:09.833Z,99.90
2019-02-11T03:31:40.223Z,99.90
2019-02-11T03:34:10.564Z,99.90
2019-02-11T03:36:41.103Z,99.90
2019-02-11T03:39:11.760Z,99.90
2019-02-11T03:41:42.575Z,99.90
2019-02-11T03:44:15.085Z,99.90
2019-02-11T03:46:45.379Z,99.90
2019-02-11T03:49:17.822Z,99.90
2019-02-11T03:51:47.870Z,99.90
2019-02-11T03:54:18.198Z,99.90
2019-02-11T03:56:48.685Z,99.90
2019-02-11T03:59:19.010Z,99.90
2019-02-11T04:01:49.458Z,99.90
2019-02-11T04:04:19.818Z,99.90
2019-02-11T04:06:50.213Z,99.90
2019-02-11T04:09:20.537Z,99.90
2019-02-11T04:11:51.085Z,99.90
2019-02-11T04:14:25.003Z,99.90
2019-02-11T04:16:54.602Z,99.90
2019-02-11T04:19:24.950Z,99.90
2019-02-11T04:22:08.915Z,99.90
2019-02-11T04:24:39.247Z,99.90
2019-02-11T04:27:09.829Z,99.90
2019-02-11T04:29:40.199Z,99.90
2019-02-11T04:32:10.534Z,99.90
2019-02-11T04:34:40.890Z,99.90
2019-02-11T04:37:11.227Z,99.90
2019-02-11T04:39:41.612Z,99.90
2019-02-11T04:42:13.323Z,99.90
2019-02-11T04:44:44.798Z,99.90
2019-02-11T04:47:15.429Z,99.90
2019-02-11T04:49:46.038Z,99.90
2019-02-11T04:52:16.387Z,99.90
2019-02-11T04:54:46.758Z,99.90
2019-02-11T04:57:18.196Z,99.90
2019-02-11T04:59:48.776Z,99.90
2019-02-11T05:02:19.114Z,99.90
2019-02-11T05:04:49.529Z,99.90
2019-02-11T05:07:20.088Z,99.90
2019-02-11T05:09:50.474Z,99.90
2019-02-11T05:12:20.822Z,99.90
2019-02-11T05:14:51.198Z,99.90
2019-02-11T05:17:21.539Z,99.90
2019-02-11T05:19:53.835Z,99.90
2019-02-11T05:22:24.758Z,99.90
2019-02-11T05:24:55.150Z,99.90
2019-02-11T05:27:25.695Z,99.90
2019-02-11T05:29:56.155Z,99.90
2019-02-11T05:32:26.508Z,99.90
2019-02-11T05:34:56.942Z,99.90
2019-02-11T05:37:28.428Z,99.90
2019-02-11T05:39:58.762Z,99.90
2019-02-11T05:42:30.221Z,99.90
2019-02-11T05:45:02.076Z,99.90
2019-02-11T05:47:32.536Z,99.90
2019-02-11T05:50:02.922Z,99.90
2019-02-11T05:52:33.259Z,99.90
2019-02-11T05:55:03.622Z,99.90
2019-02-11T05:57:33.990Z,99.90
2019-02-11T06:00:05.085Z,99.90
2019-02-11T06:02:35.506Z,99.90
2019-02-11T06:05:06.763Z,99.80
2019-02-11T06:07:40.070Z,99.90
2019-02-11T06:10:10.654Z,99.90
2019-02-11T06:12:41.210Z,99.90
2019-02-11T06:15:11.651Z,99.90
2019-02-11T06:17:43.408Z,99.90
2019-02-11T06:20:13.721Z,99.90
2019-02-11T06:22:44.255Z,99.90
2019-02-11T06:25:14.595Z,99.90
2019-02-11T06:27:45.226Z,99.80
2019-02-11T06:30:15.618Z,99.90
2019-02-11T06:32:46.018Z,99.90
2019-02-11T06:35:16.719Z,99.90
2019-02-11T06:37:47.127Z,99.90
2019-02-11T06:40:17.468Z,99.90
2019-02-11T06:42:47.901Z,99.90
2019-02-11T06:45:18.254Z,99.80
2019-02-11T06:47:48.667Z,99.90
2019-02-11T06:50:19.022Z,99.80
2019-02-11T06:52:49.403Z,99.80
2019-02-11T06:55:19.750Z,99.90
2019-02-11T06:57:50.346Z,99.80
2019-02-11T07:00:20.693Z,99.80
2019-02-11T07:02:51.203Z,99.90
2019-02-11T07:05:21.538Z,99.80
2019-02-11T07:07:52.146Z,99.80
2019-02-11T07:10:22.482Z,99.80
2019-02-11T07:12:52.866Z,99.80
2019-02-11T07:15:23.211Z,99.90
2019-02-11T07:17:53.579Z,99.80
2019-02-11T07:20:24.954Z,99.80
2019-02-11T07:22:56.454Z,99.70
2019-02-11T07:25:26.799Z,99.50
2019-02-11T07:27:57.342Z,99.40
2019-02-11T07:30:27.683Z,99.50
2019-02-11T07:32:58.177Z,99.20
2019-02-11T07:35:28.830Z,98.90
2019-02-11T07:37:59.442Z,98.90
2019-02-11T07:40:31.759Z,98.70
2019-02-11T07:43:47.542Z,98.80
2019-02-11T07:46:24.962Z,98.90
2019-02-11T07:48:55.782Z,98.80
2019-02-11T07:51:26.125Z,98.90
2019-02-11T07:53:56.690Z,99.00
2019-02-11T07:56:27.024Z,98.90
2019-02-11T07:58:57.434Z,98.90
2019-02-11T08:01:27.767Z,99.10
2019-02-11T08:03:58.149Z,99.20
2019-02-11T08:06:28.486Z,99.30
2019-02-11T08:09:00.077Z,99.50
2019-02-11T08:11:32.343Z,99.60
2019-02-11T08:14:02.754Z,99.90
2019-02-11T08:16:33.090Z,99.90
2019-02-11T08:19:03.476Z,99.90
2019-02-11T08:21:33.814Z,99.90
2019-02-11T08:24:04.279Z,99.90
2019-02-11T08:26:34.618Z,99.90
2019-02-11T08:29:05.933Z,99.90
2019-02-11T08:31:36.270Z,99.90
2019-02-11T08:34:06.642Z,99.90
2019-02-11T08:36:37.079Z,99.70
2019-02-11T08:39:09.383Z,99.80
2019-02-11T08:41:40.055Z,99.70
2019-02-11T08:44:10.430Z,99.80
2019-02-11T08:46:40.894Z,99.10
2019-02-11T08:49:23.075Z,99.20
2019-02-11T08:51:54.379Z,99.30
2019-02-11T08:54:24.778Z,99.50
2019-02-11T08:56:55.128Z,99.00
2019-02-11T08:59:25.626Z,99.40
2019-02-11T09:01:56.077Z,99.20
2019-02-11T09:04:28.246Z,99.10
2019-02-11T09:06:58.598Z,99.10
2019-02-11T09:09:29.407Z,98.90
2019-02-11T09:11:59.747Z,99.10
2019-02-11T09:14:31.004Z,99.20
2019-02-11T09:17:09.786Z,98.90
2019-02-11T09:19:33.455Z,98.50
2019-02-11T09:22:07.482Z,97.00
2019-02-11T09:24:37.679Z,96.70
2019-02-11T09:27:08.014Z,96.80
2019-02-11T09:29:38.544Z,97.00
2019-02-11T09:32:08.883Z,96.70
2019-02-11T09:34:39.894Z,96.70
2019-02-11T09:37:11.699Z,96.50
2019-02-11T09:39:42.202Z,96.00
2019-02-11T09:42:12.952Z,95.40
2019-02-11T09:44:43.476Z,95.60
2019-02-11T09:47:13.902Z,95.50
2019-02-11T09:49:44.298Z,96.00
2019-02-11T09:52:14.646Z,95.50
2019-02-11T09:54:45.055Z,96.00
2019-02-11T09:57:15.433Z,95.70
2019-02-11T09:59:45.781Z,95.40
2019-02-11T10:02:16.139Z,95.30
2019-02-11T10:04:46.482Z,94.80
2019-02-11T10:07:16.837Z,94.50
2019-02-11T10:09:47.957Z,94.50
2019-02-11T10:12:21.390Z,94.50
2019-02-11T10:14:50.306Z,94.20
2019-02-11T10:17:20.678Z,94.00
2019-02-11T10:19:51.015Z,93.30
2019-02-11T10:22:21.401Z,93.00
2019-02-11T10:24:51.747Z,93.10
2019-02-11T10:27:22.238Z,92.60
2019-02-11T10:29:52.698Z,92.10
2019-02-11T10:32:23.075Z,92.50
2019-02-11T10:34:53.530Z,91.80
2019-02-11T10:37:23.922Z,91.50
2019-02-11T10:39:54.310Z,91.00
2019-02-11T10:42:24.671Z,90.90
2019-02-11T10:44:55.022Z,91.50
2019-02-11T10:47:25.359Z,91.50
2019-02-11T10:49:55.738Z,91.00
2019-02-11T10:52:26.235Z,90.80
2019-02-11T10:54:56.683Z,90.50
2019-02-11T10:57:27.018Z,90.40
2019-02-11T10:59:57.518Z,90.80
2019-02-11T11:02:28.681Z,90.40
2019-02-11T11:04:59.115Z,91.00
2019-02-11T11:07:29.475Z,90.10
2019-02-11T11:09:59.826Z,90.00
2019-02-11T11:12:30.200Z,90.60
2019-02-11T11:15:00.532Z,89.00
2019-02-11T11:17:32.518Z,90.10
2019-02-11T11:20:02.882Z,89.40
2019-02-11T11:22:33.241Z,88.90
2019-02-11T11:28:05.986Z,88.70
2019-02-11T11:30:38.109Z,90.40
2019-02-11T11:33:08.549Z,88.80
2019-02-11T11:35:38.874Z,87.90
2019-02-11T11:38:09.253Z,89.50
2019-02-11T11:40:39.602Z,88.40
2019-02-11T11:43:11.034Z,88.70
2019-02-11T11:45:41.368Z,88.60
2019-02-11T11:48:11.810Z,88.80
2019-02-11T11:50:42.169Z,89.70
2019-02-11T11:53:12.498Z,89.30
2019-02-11T11:55:42.950Z,89.60
2019-02-11T11:58:13.698Z,89.00
2019-02-11T12:00:44.590Z,89.50
2019-02-11T12:03:14.907Z,89.50
2019-02-11T12:05:45.289Z,90.00
2019-02-11T12:08:15.620Z,90.10
2019-02-11T12:10:46.195Z,89.80
2019-02-11T12:13:22.491Z,90.10
2019-02-11T12:15:49.081Z,90.00
2019-02-11T12:18:19.485Z,89.90
2019-02-11T12:20:49.878Z,89.10
2019-02-11T12:23:20.232Z,89.70
2019-02-11T12:25:50.600Z,89.20
2019-02-11T12:28:32.887Z,90.40
2019-02-11T12:31:03.558Z,90.70
2019-02-11T12:33:34.324Z,90.90
2019-02-11T12:36:05.752Z,91.40
2019-02-11T12:38:36.078Z,91.60
2019-02-11T12:41:06.575Z,91.60
2019-02-11T12:43:36.923Z,91.90
2019-02-11T12:46:07.303Z,91.80
2019-02-11T12:48:37.646Z,91.10
2019-02-11T12:51:08.060Z,90.90
2019-02-11T12:53:39.625Z,90.90
2019-02-11T12:56:10.017Z,90.80
2019-02-11T12:58:40.335Z,90.10
2019-02-11T13:01:10.717Z,89.70
2019-02-11T13:03:41.072Z,90.00
2019-02-11T13:06:11.472Z,90.40
2019-02-11T13:08:41.833Z,90.50
2019-02-11T13:11:12.313Z,89.60
2019-02-11T13:13:42.645Z,89.20
2019-02-11T13:16:13.037Z,89.10
2019-02-11T13:18:43.548Z,89.30
2019-02-11T13:21:14.206Z,87.50
2019-02-11T13:23:44.534Z,88.20
2019-02-11T13:26:14.995Z,87.30
2019-02-11T13:28:45.408Z,88.10
2019-02-11T13:31:15.895Z,88.40
2019-02-11T13:33:46.285Z,89.00
2019-02-11T13:36:16.655Z,89.00
2019-02-11T13:38:47.015Z,88.60
2019-02-11T13:41:17.351Z,89.60
2019-02-11T13:43:52.090Z,89.20
2019-02-11T13:46:22.418Z,90.00
2019-02-11T13:48:53.056Z,90.60
2019-02-11T13:51:23.393Z,90.30
2019-02-11T13:53:53.759Z,90.00
2019-02-11T13:56:24.105Z,89.40
2019-02-11T13:58:54.546Z,88.80
2019-02-11T14:01:24.903Z,88.40
2019-02-11T14:03:55.340Z,87.60
2019-02-11T14:06:25.677Z,86.40
2019-02-11T14:08:56.398Z,86.50
2019-02-11T14:11:26.736Z,84.50
2019-02-11T14:14:02.884Z,85.00
2019-02-11T14:16:29.083Z,83.50
2019-02-11T14:18:59.482Z,82.10
2019-02-11T14:21:29.831Z,81.00
2019-02-11T14:24:00.241Z,79.70
2019-02-11T14:26:30.589Z,79.90
2019-02-11T14:29:00.942Z,79.60
2019-02-11T14:31:31.895Z,79.30
2019-02-11T14:34:03.015Z,81.00
2019-02-11T14:36:33.941Z,80.30
2019-02-11T14:39:06.450Z,79.40
2019-02-11T14:41:37.057Z,79.30
2019-02-11T14:44:07.883Z,81.00
2019-02-11T14:46:38.410Z,78.50
2019-02-11T14:49:08.826Z,77.80
2019-02-11T14:51:39.300Z,77.70
2019-02-11T14:54:09.691Z,78.70
2019-02-11T14:56:40.279Z,77.20
2019-02-11T14:59:10.603Z,77.00
2019-02-11T15:01:40.978Z,76.40
2019-02-11T15:04:11.318Z,76.80
2019-02-11T15:06:41.677Z,77.10
2019-02-11T15:09:12.035Z,76.90
2019-02-11T15:11:42.435Z,77.20
2019-02-11T15:14:13.142Z,76.70
2019-02-11T15:16:44.272Z,75.40
2019-02-11T15:19:14.711Z,76.30
2019-02-11T15:21:47.574Z,76.40
2019-02-11T15:24:18.217Z,77.50
2019-02-11T15:26:48.590Z,77.40
2019-02-11T15:29:18.931Z,77.50
2019-02-11T15:31:49.370Z,78.40
2019-02-11T15:34:19.710Z,79.50
2019-02-11T15:36:50.962Z,78.20
2019-02-11T15:39:21.486Z,77.20
2019-02-11T15:41:51.891Z,77.80
2019-02-11T15:44:22.228Z,76.80
2019-02-11T15:46:52.692Z,77.10
2019-02-11T15:49:22.989Z,76.40
2019-02-11T15:51:53.386Z,76.50
2019-02-11T15:54:25.009Z,78.00
2019-02-11T15:56:56.679Z,77.80
2019-02-11T15:59:27.148Z,77.70
2019-02-11T16:01:57.487Z,78.80
2019-02-11T16:04:28.235Z,78.30
2019-02-11T16:06:58.967Z,79.40
2019-02-11T16:09:29.347Z,79.40
2019-02-11T16:11:59.757Z,79.60
2019-02-11T16:14:30.335Z,80.20
2019-02-11T16:17:01.884Z,80.20
2019-02-11T16:19:32.415Z,80.80
2019-02-11T16:22:02.749Z,80.00
2019-02-11T16:24:33.075Z,80.70
2019-02-11T16:27:03.425Z,82.30
2019-02-11T16:29:33.753Z,81.80
2019-02-11T16:32:04.211Z,82.40
2019-02-11T16:34:34.558Z,81.50
2019-02-11T16:37:05.016Z,82.40
2019-02-11T16:39:35.346Z,82.60
2019-02-11T16:42:05.707Z,83.00
2019-02-11T16:44:36.058Z,82.20
2019-02-11T16:47:06.409Z,81.70
2019-02-11T16:49:36.766Z,82.40
2019-02-11T16:52:07.410Z,82.20
2019-02-11T16:54:37.821Z,82.50
2019-02-11T16:57:09.935Z,82.50
2019-02-11T16:59:40.374Z,83.00
2019-02-11T17:02:10.711Z,82.10
2019-02-11T17:04:41.134Z,83.20
2019-02-11T17:07:11.474Z,83.30
2019-02-11T17:09:42.198Z,83.00
2019-02-11T17:12:12.531Z,83.40
2019-02-11T17:14:42.948Z,82.90
2019-02-11T17:17:13.298Z,83.20
2019-02-11T17:19:43.662Z,83.40
2019-02-11T17:22:14.026Z,83.20
2019-02-11T17:24:44.450Z,83.50
2019-02-11T17:27:14.786Z,83.70
2019-02-11T17:29:45.515Z,83.30
2019-02-11T17:32:16.003Z,83.10
2019-02-11T17:34:46.414Z,83.80
2019-02-11T17:37:16.775Z,83.10
2019-02-11T17:39:47.562Z,83.20
2019-02-11T17:42:17.898Z,83.50
2019-02-11T17:44:48.282Z,84.10
2019-02-11T17:47:18.622Z,82.70
2019-02-11T17:49:49.003Z,83.50
2019-02-11T17:52:19.449Z,83.50
2019-02-11T17:54:49.802Z,83.20
2019-02-11T17:57:20.154Z,83.40
2019-02-11T17:59:50.495Z,83.50
2019-02-11T18:02:20.857Z,83.70
2019-02-11T18:04:51.183Z,83.90
2019-02-11T18:07:21.561Z,84.10
2019-02-11T18:09:51.878Z,84.20
2019-02-11T18:12:23.356Z,83.50
2019-02-11T18:14:53.691Z,83.60
2019-02-11T18:17:24.061Z,84.20
2019-02-11T18:19:54.394Z,84.20
2019-02-11T18:22:24.753Z,84.10
2019-02-11T18:24:55.473Z,84.90
2019-02-11T18:27:25.798Z,84.60
2019-02-11T18:29:56.499Z,84.40
2019-02-11T18:32:27.282Z,84.50
2019-02-11T18:34:57.639Z,84.60
2019-02-11T18:37:28.314Z,84.30
2019-02-11T18:39:58.685Z,84.20
2019-02-11T18:42:29.397Z,84.40
2019-02-11T18:45:00.523Z,83.90
2019-02-11T18:47:30.839Z,84.60
2019-02-11T18:50:01.470Z,84.90
2019-02-11T18:52:31.802Z,84.70
2019-02-11T18:55:02.135Z,84.70
2019-02-11T18:57:32.895Z,84.90
2019-02-11T19:00:03.220Z,84.70
2019-02-11T19:02:35.846Z,85.10
2019-02-11T19:05:06.446Z,85.20
2019-02-11T19:07:36.835Z,85.40
2019-02-11T19:10:08.068Z,85.30
2019-02-11T19:12:40.747Z,85.50
2019-02-11T19:15:12.571Z,85.70
2019-02-11T19:17:43.122Z,85.80
2019-02-11T19:20:14.279Z,86.20
2019-02-11T19:22:44.698Z,86.50
2019-02-11T19:25:16.516Z,86.70
2019-02-11T19:27:47.809Z,86.80
2019-02-11T19:30:21.005Z,87.00
2019-02-11T19:32:51.613Z,87.10
2019-02-11T19:35:21.959Z,87.60
2019-02-11T19:37:52.411Z,87.60
2019-02-11T19:40:22.775Z,87.60
2019-02-11T19:42:54.302Z,87.80
2019-02-11T19:45:24.643Z,88.10
2019-02-11T19:47:55.057Z,88.40
2019-02-11T19:50:25.388Z,88.50
2019-02-11T19:52:55.771Z,88.50
2019-02-11T19:55:26.129Z,88.60
2019-02-11T19:57:56.506Z,89.30
2019-02-11T20:00:26.876Z,89.60
2019-02-11T20:02:57.338Z,89.60
2019-02-11T20:05:27.674Z,90.20
2019-02-11T20:07:58.070Z,90.50
2019-02-11T20:10:28.410Z,90.90
2019-02-11T20:12:58.770Z,91.20
2019-02-11T20:15:29.167Z,91.40
2019-02-11T20:17:59.508Z,91.50
2019-02-11T20:20:30.922Z,91.70
2019-02-11T20:23:01.262Z,92.20
2019-02-11T20:25:32.008Z,92.10
2019-02-11T20:28:02.345Z,92.30
2019-02-11T20:30:33.130Z,92.70
2019-02-11T20:33:05.255Z,92.80
2019-02-11T20:35:35.633Z,93.10
2019-02-11T20:38:05.978Z,93.10
2019-02-11T20:40:36.394Z,93.10
2019-02-11T20:43:06.731Z,93.20
2019-02-11T20:45:37.107Z,93.40
2019-02-11T20:48:07.821Z,93.30
2019-02-11T20:50:38.579Z,93.50
2019-02-11T20:53:08.914Z,93.60
2019-02-11T20:55:39.250Z,93.60
2019-02-11T20:58:09.611Z,93.80
2019-02-11T21:00:39.943Z,93.80
2019-02-11T21:03:11.478Z,93.80
2019-02-11T21:05:42.284Z,93.90
2019-02-11T21:08:13.102Z,94.10
2019-02-11T21:10:43.437Z,94.10
2019-02-11T21:13:13.800Z,93.90
2019-02-11T21:15:44.491Z,93.90
2019-02-11T21:18:14.819Z,93.90
2019-02-11T21:20:45.394Z,94.00
2019-02-11T21:23:15.751Z,93.90
2019-02-11T21:25:46.125Z,93.70
2019-02-11T21:28:16.456Z,93.80
2019-02-11T21:30:46.938Z,93.60
2019-02-11T21:33:17.347Z,93.40
2019-02-11T21:35:48.038Z,93.30
2019-02-11T21:38:18.751Z,93.20
2019-02-11T21:40:49.084Z,93.20
2019-02-11T21:43:19.422Z,93.30
2019-02-11T21:45:49.761Z,93.30
2019-02-11T21:48:20.110Z,93.30
2019-02-11T21:50:50.457Z,93.30
2019-02-11T21:53:20.816Z,93.30
2019-02-11T21:55:51.146Z,93.40
2019-02-11T21:58:21.526Z,93.40
2019-02-11T22:00:52.158Z,93.80
2019-02-11T22:03:22.632Z,93.40
2019-02-11T22:05:52.972Z,93.50
2019-02-11T22:08:23.414Z,93.50
2019-02-11T22:10:53.754Z,93.60
2019-02-11T22:13:24.136Z,93.70
2019-02-11T22:15:54.458Z,93.90
2019-02-11T22:18:24.815Z,93.90
2019-02-11T22:20:55.183Z,93.80
2019-02-11T22:23:25.516Z,93.90
2019-02-11T22:25:55.930Z,93.90
2019-02-11T22:28:26.267Z,93.90
2019-02-11T22:30:56.618Z,93.80
2019-02-11T22:33:27.238Z,93.90
2019-02-11T22:35:57.667Z,93.80
2019-02-11T22:38:28.043Z,93.70
2019-02-11T22:40:58.374Z,93.90
2019-02-11T22:43:28.722Z,93.70
2019-02-11T22:45:59.082Z,93.70
2019-02-11T22:48:31.818Z,93.60
2019-02-11T22:51:02.491Z,93.70
2019-02-11T22:53:32.931Z,93.50
2019-02-11T22:56:03.251Z,93.40
2019-02-11T22:58:33.998Z,93.20
2019-02-11T23:01:06.223Z,93.30
2019-02-11T23:03:37.694Z,93.40
2019-02-11T23:06:08.132Z,93.30
2019-02-11T23:08:38.515Z,93.30
2019-02-11T23:11:09.923Z,93.20
2019-02-11T23:13:40.290Z,93.10
2019-02-11T23:16:10.623Z,93.20
2019-02-11T23:18:41.006Z,93.00
2019-02-11T23:21:11.334Z,93.00
2019-02-11T23:23:41.706Z,93.10
2019-02-11T23:26:12.082Z,93.20
2019-02-11T23:28:42.417Z,93.10
2019-02-11T23:31:12.882Z,93.10
2019-02-11T23:33:43.280Z,93.10
2019-02-11T23:36:13.642Z,93.10
2019-02-11T23:38:44.006Z,93.10
2019-02-11T23:41:14.340Z,93.10
2019-02-11T23:43:44.730Z,93.10
2019-02-11T23:46:15.066Z,93.20
2019-02-11T23:48:45.526Z,93.00
2019-02-11T23:51:15.812Z,93.10
2019-02-11T23:53:46.174Z,93.00
2019-02-11T23:56:17.604Z,93.00
2019-02-11T23:58:47.999Z,93.00
